Spokane/Fairchild AFB, Washington
Current Conditions -  °F | °C
As of 3:35 PM on Saturday 20 Dec 2014 (Local Time) from KSKA Reporting Station
Light Rain Light Rain  
Wind Chill: 32°   Ceiling: 600
Heat Index: 39°   Visibility: 10mi
Dew Point: 39°   Wind: 12mph
Humidity: 100%   Direction: 140°SE
Pressure: 29.66"   Gusts: NA
Location:  47.62°N, 117.65°W
Report Text: KSKA 202335Z AUTO 14010KT 10SM -RA BKN006 OVC012 04/04 A2966 RMK AO2
Loading
Personal Weather Stations






























Interactive Weather Map New forecast layout! Learn more

10-Day Weather Forecast

Advertisements
Track Severe Weather on mobile